Time;durP1;ratioP1;P1;durP2;ratioP2;P2;SDS_P1;SDS_P2;PMS_P1;PMS_P2;Temp;Humidity;BMP_temperature;BMP_pressure;BME280_temperature;BME280_humidity;BME280_pressure;Samples;Min_cycle;Max_cycle;Signal;HPM_P1;HPM_P2
2023/06/11 00:01:43;;;;;;;;;4.50;4.50;;;;;22.36;56.09;101580.69;5049581;28;8834;-68
2023/06/11 00:04:12;;;;;;;;;5.25;5.25;;;;;22.36;55.74;101577.97;5032633;28;9610;-67
2023/06/11 00:06:39;;;;;;;;;5.75;5.75;;;;;22.36;55.66;101577.97;5050819;28;9536;-68
2023/06/11 00:09:06;;;;;;;;;6.25;6.25;;;;;22.32;55.43;101574.06;5049253;28;8841;-68
2023/06/11 00:11:34;;;;;;;;;4.25;4.25;;;;;22.33;55.13;101578.50;5050728;28;8813;-67
2023/06/11 00:14:00;;;;;;;;;6.00;6.00;;;;;22.32;55.17;101577.66;5049087;28;9590;-67
2023/06/11 00:16:32;;;;;;;;;5.00;4.25;;;;;22.31;55.12;101575.16;5050545;28;8825;-67
2023/06/11 00:19:00;;;;;;;;;5.25;5.25;;;;;22.31;54.93;101580.66;5049279;28;8854;-67
2023/06/11 00:21:28;;;;;;;;;4.00;3.75;;;;;22.31;54.99;101570.50;5050376;28;8838;-68
2023/06/11 00:23:56;;;;;;;;;6.75;6.75;;;;;22.30;54.70;101570.75;5050246;28;8957;-68
2023/06/11 00:26:22;;;;;;;;;5.00;5.00;;;;;22.28;54.36;101565.53;5049006;28;8869;-69
2023/06/11 00:28:49;;;;;;;;;6.00;5.00;;;;;22.24;54.35;101558.91;5048813;28;9569;-68
2023/06/11 00:31:18;;;;;;;;;6.00;5.50;;;;;22.17;53.95;101561.00;5032188;28;8852;-68
2023/06/11 00:33:44;;;;;;;;;6.00;5.75;;;;;22.15;53.87;101561.25;5048897;28;8856;-68
2023/06/11 00:36:11;;;;;;;;;4.75;3.00;;;;;22.17;54.35;101556.34;5048645;28;8836;-68
2023/06/11 00:38:38;;;;;;;;;7.00;6.50;;;;;22.19;54.10;101556.09;5050282;28;8841;-68
2023/06/11 00:41:04;;;;;;;;;9.25;8.50;;;;;22.15;54.08;101555.75;5050104;28;8830;-68
2023/06/11 00:43:31;;;;;;;;;5.00;5.00;;;;;22.14;53.81;101556.84;5050006;28;8817;-68
2023/06/11 00:46:02;;;;;;;;;5.00;5.00;;;;;22.14;54.11;101556.03;5032166;28;8840;-68
2023/06/11 00:48:28;;;;;;;;;5.50;5.50;;;;;22.11;54.39;101553.75;5050149;28;8818;-68
2023/06/11 00:50:55;;;;;;;;;5.50;5.00;;;;;22.08;54.46;101552.38;5048721;28;8956;-68
2023/06/11 00:53:22;;;;;;;;;4.25;3.75;;;;;22.06;54.47;101557.25;5032176;28;8838;-68
2023/06/11 00:55:48;;;;;;;;;5.50;4.25;;;;;22.04;54.54;101551.22;5048519;28;8849;-67
2023/06/11 00:58:17;;;;;;;;;4.00;4.00;;;;;22.03;54.59;101552.28;5049882;28;8834;-68
2023/06/11 01:00:47;;;;;;;;;8.00;5.00;;;;;21.98;54.71;101549.47;5048733;28;8847;-68
2023/06/11 01:03:18;;;;;;;;;6.50;6.50;;;;;21.94;54.67;101553.78;5048645;28;8842;-68
2023/06/11 01:05:54;;;;;;;;;5.25;5.25;;;;;21.89;55.23;101546.34;5049777;28;8814;-68
2023/06/11 01:08:22;;;;;;;;;5.00;5.00;;;;;21.85;55.32;101547.09;5048579;28;8849;-68
2023/06/11 01:10:51;;;;;;;;;8.25;6.00;;;;;21.79;55.67;101548.91;5048606;28;8841;-68
2023/06/11 01:13:18;;;;;;;;;9.00;8.50;;;;;21.75;56.09;101555.16;5048250;28;8919;-68
2023/06/11 01:15:44;;;;;;;;;6.50;6.50;;;;;21.69;56.24;101549.59;5048313;28;8840;-69
2023/06/11 01:18:18;;;;;;;;;8.00;6.75;;;;;21.64;56.73;101544.06;5048525;28;8822;-67
2023/06/11 01:20:56;;;;;;;;;8.00;7.50;;;;;21.61;56.99;101551.94;5048506;28;8837;-66
2023/06/11 01:23:46;;;;;;;;;7.00;7.00;;;;;21.56;57.05;101544.47;5031858;28;8834;-66
2023/06/11 01:26:47;;;;;;;;;6.75;6.75;;;;;21.55;57.42;101551.00;5048405;28;8908;-69
2023/06/11 01:29:15;;;;;;;;;7.50;7.00;;;;;21.53;57.10;101541.41;5048389;28;8852;-67
2023/06/11 01:31:42;;;;;;;;;5.50;3.00;;;;;21.49;57.39;101543.81;5048195;28;8979;-67
2023/06/11 01:34:13;;;;;;;;;7.00;7.00;;;;;21.46;57.52;101552.53;5048106;28;8952;-68
2023/06/11 01:36:39;;;;;;;;;7.75;7.50;;;;;21.43;57.68;101544.81;5048381;28;8848;-67
2023/06/11 01:39:08;;;;;;;;;8.25;7.50;;;;;21.39;57.64;101544.50;5048385;28;8848;-68
2023/06/11 01:41:58;;;;;;;;;6.75;6.75;;;;;21.36;57.74;101539.50;5049223;28;8837;-68
2023/06/11 01:44:26;;;;;;;;;6.50;6.50;;;;;21.33;57.88;101537.25;5051839;28;8834;-68
2023/06/11 01:46:53;;;;;;;;;7.00;7.00;;;;;21.30;57.85;101540.47;5052081;28;8844;-68
2023/06/11 01:49:20;;;;;;;;;7.00;7.00;;;;;21.30;58.01;101551.41;5051856;28;8846;-67
2023/06/11 01:51:46;;;;;;;;;7.00;7.00;;;;;21.29;57.87;101540.72;5035390;28;9670;-67
2023/06/11 01:54:13;;;;;;;;;7.00;7.00;;;;;21.30;57.92;101539.63;5051687;28;8834;-68
2023/06/11 01:56:39;;;;;;;;;4.75;4.75;;;;;21.33;57.89;101542.75;5035298;28;8830;-68
2023/06/11 01:59:06;;;;;;;;;9.00;7.50;;;;;21.33;57.77;101533.69;5051732;28;9561;-68
2023/06/11 02:01:36;;;;;;;;;7.25;7.25;;;;;21.31;57.64;101530.31;5051465;28;8955;-68
2023/06/11 02:04:03;;;;;;;;;8.00;7.00;;;;;21.29;57.88;101530.59;5051539;28;8829;-68
2023/06/11 02:06:32;;;;;;;;;7.00;7.00;;;;;21.28;57.80;101537.16;5052965;28;8830;-67
2023/06/11 02:08:58;;;;;;;;;7.25;7.25;;;;;21.26;57.82;101535.72;5051686;28;8923;-68
2023/06/11 02:11:25;;;;;;;;;6.50;6.50;;;;;21.21;58.01;101534.56;5051829;28;8873;-68
2023/06/11 02:13:52;;;;;;;;;8.00;8.00;;;;;21.19;58.08;101539.47;5052717;28;8834;-68
2023/06/11 02:16:19;;;;;;;;;10.00;9.00;;;;;21.21;57.89;101547.44;5052463;28;8837;-68
2023/06/11 02:18:45;;;;;;;;;9.25;8.00;;;;;21.21;57.58;101545.53;5051394;28;8871;-68
2023/06/11 02:21:12;;;;;;;;;9.25;8.75;;;;;21.21;57.22;101531.81;5051534;28;8834;-68
2023/06/11 02:23:38;;;;;;;;;8.00;8.00;;;;;21.26;57.35;101541.22;5052573;28;8838;-69
2023/06/11 02:26:05;;;;;;;;;9.50;8.50;;;;;21.26;56.96;101542.03;5050940;28;8829;-68
2023/06/11 02:28:31;;;;;;;;;8.50;8.50;;;;;21.26;56.92;101536.56;5052476;28;8817;-68
2023/06/11 02:30:58;;;;;;;;;7.75;7.25;;;;;21.25;56.79;101523.94;5051121;28;8861;-68
2023/06/11 02:33:24;;;;;;;;;10.75;9.75;;;;;21.22;56.92;101527.19;5051011;28;8872;-68
2023/06/11 02:35:51;;;;;;;;;10.00;10.00;;;;;21.19;57.12;101534.00;5052027;28;8948;-66
2023/06/11 02:38:17;;;;;;;;;10.50;9.00;;;;;21.14;57.22;101536.63;5051109;28;8833;-67
2023/06/11 02:40:44;;;;;;;;;10.25;10.00;;;;;21.09;57.46;101527.50;5050949;28;8837;-69
2023/06/11 02:43:10;;;;;;;;;10.75;10.75;;;;;21.05;57.30;101529.91;5052046;28;8919;-68
2023/06/11 02:45:37;;;;;;;;;12.00;10.00;;;;;21.02;57.26;101529.56;5051923;28;8830;-68
2023/06/11 02:48:04;;;;;;;;;10.25;8.50;;;;;20.97;57.51;101524.84;5034399;28;8841;-67
2023/06/11 02:50:30;;;;;;;;;10.50;10.50;;;;;20.94;57.63;101528.91;5052057;28;8841;-68
2023/06/11 02:52:57;;;;;;;;;14.00;13.00;;;;;20.91;57.98;101526.66;5051505;28;8842;-69
2023/06/11 02:55:24;;;;;;;;;9.50;9.50;;;;;20.88;57.82;101529.06;5051713;28;8833;-68
2023/06/11 02:57:50;;;;;;;;;12.00;12.00;;;;;20.87;57.88;101530.97;5050526;28;8875;-67
2023/06/11 03:00:17;;;;;;;;;9.00;9.00;;;;;20.86;57.45;101537.50;5051976;28;8825;-68
2023/06/11 03:02:44;;;;;;;;;13.00;13.00;;;;;20.83;57.44;101529.81;5034038;28;9606;-66
2023/06/11 03:05:13;;;;;;;;;10.50;10.50;;;;;20.83;57.17;101528.97;5050336;28;8911;-68
2023/06/11 03:07:40;;;;;;;;;9.75;9.75;;;;;20.81;57.33;101528.38;5050403;28;8857;-66
2023/06/11 03:10:07;;;;;;;;;10.00;9.75;;;;;20.79;57.05;101519.59;5034033;28;8838;-68
2023/06/11 03:12:34;;;;;;;;;7.25;7.25;;;;;20.78;57.10;101517.91;5051454;28;8857;-68
2023/06/11 03:15:01;;;;;;;;;13.75;13.25;;;;;20.73;56.62;101543.28;5050116;28;9751;-68
2023/06/11 03:17:28;;;;;;;;;12.75;12.00;;;;;20.73;57.14;101546.84;5050224;28;8842;-68
2023/06/11 03:19:55;;;;;;;;;12.50;12.50;;;;;20.74;56.74;101537.59;5033907;28;8834;-68
2023/06/11 03:22:22;;;;;;;;;13.75;13.25;;;;;20.79;56.56;101531.38;5050114;28;8876;-68
2023/06/11 03:24:48;;;;;;;;;14.00;14.00;;;;;20.81;56.63;101545.63;5049747;28;8857;-67
2023/06/11 03:27:31;;;;;;;;;15.25;13.00;;;;;20.80;56.63;101551.34;5050060;28;8898;-69
2023/06/11 03:29:58;;;;;;;;;13.00;10.75;;;;;20.79;56.88;101546.97;5050138;28;8907;-68
2023/06/11 03:32:25;;;;;;;;;12.00;11.25;;;;;20.77;57.05;101538.16;5033498;28;8853;-68
2023/06/11 03:34:52;;;;;;;;;11.75;11.25;;;;;20.79;56.85;101530.56;5049590;28;8840;-68
2023/06/11 03:37:22;;;;;;;;;11.50;11.00;;;;;20.79;56.87;101534.13;5050159;28;8841;-68
2023/06/11 03:39:53;;;;;;;;;11.75;10.25;;;;;20.80;57.00;101541.25;5034029;28;8837;-67
2023/06/11 03:42:19;;;;;;;;;10.75;10.00;;;;;20.78;57.08;101534.34;5049643;28;8846;-68
2023/06/11 03:44:46;;;;;;;;;16.25;16.00;;;;;20.79;57.02;101539.59;5049413;28;8846;-68
2023/06/11 03:47:14;;;;;;;;;15.00;13.75;;;;;20.78;57.15;101546.09;5049810;28;8830;-68
2023/06/11 03:49:43;;;;;;;;;15.00;14.25;;;;;20.78;57.34;101548.03;5049545;28;8826;-67
2023/06/11 03:52:09;;;;;;;;;14.33;14.33;;;;;20.77;57.06;101549.09;5050572;28;8849;-67
2023/06/11 03:54:36;;;;;;;;;15.00;13.67;;;;;20.75;57.14;101546.63;5049222;28;8929;-68
2023/06/11 03:57:03;;;;;;;;;14.75;14.00;;;;;20.74;57.41;101559.47;5050872;28;8971;-68
2023/06/11 03:59:30;;;;;;;;;16.33;15.00;;;;;20.74;57.54;101556.75;5049547;28;8841;-68
2023/06/11 04:01:56;;;;;;;;;17.33;14.00;;;;;20.75;57.49;101557.56;5049395;28;9047;-68
2023/06/11 04:04:23;;;;;;;;;15.50;15.00;;;;;20.74;57.34;101556.75;5049669;28;8986;-68
2023/06/11 04:06:50;;;;;;;;;11.00;11.00;;;;;20.77;57.44;101551.84;5050648;28;8852;-67
2023/06/11 04:09:17;;;;;;;;;16.75;16.75;;;;;20.87;57.09;101558.34;5049300;28;8947;-69
2023/06/11 04:11:44;;;;;;;;;15.25;15.00;;;;;20.93;57.05;101548.31;5049268;28;8829;-67
2023/06/11 04:14:12;;;;;;;;;20.00;14.00;;;;;20.93;57.23;101556.50;5048937;28;9056;-68
2023/06/11 04:16:39;;;;;;;;;11.00;11.00;;;;;20.91;57.25;101559.50;5032792;28;8834;-67
2023/06/11 04:19:05;;;;;;;;;15.25;12.75;;;;;20.90;57.29;101559.75;5049163;28;9626;-68
2023/06/11 04:21:33;;;;;;;;;16.00;16.00;;;;;20.87;57.05;101563.00;5032665;28;8856;-67
2023/06/11 04:23:59;;;;;;;;;13.25;13.25;;;;;20.85;57.03;101568.69;5049457;28;8833;-68
2023/06/11 04:26:27;;;;;;;;;16.25;16.00;;;;;20.84;57.18;101564.28;5049433;28;8838;-68
2023/06/11 04:28:56;;;;;;;;;18.67;17.33;;;;;20.83;57.18;101553.59;5049274;28;8842;-67
2023/06/11 04:31:27;;;;;;;;;15.25;13.00;;;;;20.81;57.32;101563.94;5049120;28;9637;-68
2023/06/11 04:33:56;;;;;;;;;16.00;15.00;;;;;20.77;57.43;101569.09;5048901;28;8849;-68
2023/06/11 04:36:24;;;;;;;;;17.00;15.50;;;;;20.76;57.36;101553.75;5048888;28;8829;-68
2023/06/11 04:38:51;;;;;;;;;14.00;14.00;;;;;20.72;57.49;101556.13;5049011;28;9622;-68
2023/06/11 04:41:18;;;;;;;;;15.33;15.33;;;;;20.69;57.36;101553.88;5048704;28;8911;-68
2023/06/11 04:43:49;;;;;;;;;18.00;18.00;;;;;20.71;57.62;101553.66;5048712;28;8947;-68
2023/06/11 04:46:16;;;;;;;;;15.67;15.00;;;;;20.73;56.99;101552.31;5048479;28;8818;-68
2023/06/11 04:48:42;;;;;;;;;15.00;15.00;;;;;20.74;57.30;101554.00;5048829;28;8939;-67
2023/06/11 04:51:11;;;;;;;;;14.50;13.50;;;;;20.79;57.33;101557.91;5032274;28;9706;-67
2023/06/11 04:53:43;;;;;;;;;15.25;15.25;;;;;20.81;57.33;101558.47;5048594;28;8923;-67
2023/06/11 04:56:11;;;;;;;;;16.25;14.00;;;;;20.81;57.58;101556.56;5048718;28;8857;-68
2023/06/11 04:58:39;;;;;;;;;15.00;15.00;;;;;20.82;57.53;101558.22;5048520;28;8838;-68
2023/06/11 05:01:07;;;;;;;;;20.00;18.33;;;;;20.83;57.15;101565.38;5048591;28;8961;-68
2023/06/11 05:03:37;;;;;;;;;15.00;15.00;;;;;20.85;56.93;101559.66;5049107;28;9092;-68
2023/06/11 05:06:05;;;;;;;;;15.75;15.75;;;;;20.83;57.05;101561.81;5048274;28;9099;-67
2023/06/11 05:08:34;;;;;;;;;19.00;17.25;;;;;20.78;57.24;101556.22;5048469;28;8865;-68
2023/06/11 05:11:01;;;;;;;;;17.00;17.00;;;;;20.79;57.33;101563.38;5048449;28;9183;-68
2023/06/11 05:13:30;;;;;;;;;17.33;17.33;;;;;20.81;57.21;101567.53;5032170;28;9694;-67
2023/06/11 05:16:01;;;;;;;;;25.33;25.33;;;;;20.78;57.14;101561.69;5049524;28;9138;-66
2023/06/11 05:18:29;;;;;;;;;18.33;16.67;;;;;20.78;57.33;101559.78;5052576;28;9265;-68
2023/06/11 05:20:58;;;;;;;;;19.50;19.00;;;;;20.82;57.21;101551.94;5052421;28;8991;-67
2023/06/11 05:23:31;;;;;;;;;18.50;17.50;;;;;20.88;57.34;101549.06;5053742;28;8830;-68
2023/06/11 05:26:08;;;;;;;;;20.67;19.33;;;;;20.93;57.31;101542.84;5052097;28;8842;-68
2023/06/11 05:28:38;;;;;;;;;23.00;19.00;;;;;21.02;57.11;101552.28;5052494;28;9051;-68
2023/06/11 05:31:09;;;;;;;;;23.33;21.00;;;;;21.11;56.82;101555.50;5052438;28;9490;-68
2023/06/11 05:33:36;;;;;;;;;20.00;18.00;;;;;21.27;56.80;101554.66;5052238;28;8938;-67
2023/06/11 05:36:04;;;;;;;;;20.33;18.00;;;;;21.47;56.00;101556.91;5051796;28;9089;-68
2023/06/11 05:38:31;;;;;;;;;18.33;18.00;;;;;21.70;56.08;101558.66;5052426;28;9014;-68
2023/06/11 05:40:59;;;;;;;;;22.00;20.67;;;;;21.91;55.04;101565.25;5052144;28;8921;-68
2023/06/11 05:43:26;;;;;;;;;19.50;17.25;;;;;22.06;54.92;101570.97;5051923;28;9440;-68
2023/06/11 05:45:52;;;;;;;;;18.00;17.00;;;;;22.22;54.61;101563.81;5051838;28;8857;-67
2023/06/11 05:48:20;;;;;;;;;24.25;21.50;;;;;22.33;54.15;101573.84;5035689;28;8834;-68
2023/06/11 05:50:47;;;;;;;;;21.00;21.00;;;;;22.40;53.85;101571.72;5051806;28;8842;-68
2023/06/11 05:53:14;;;;;;;;;20.25;20.25;;;;;22.43;53.56;101565.72;5051788;28;8855;-68
2023/06/11 05:55:41;;;;;;;;;17.75;16.25;;;;;22.48;53.75;101562.19;5052965;28;8844;-68
2023/06/11 05:58:10;;;;;;;;;16.50;15.50;;;;;22.54;53.92;101572.16;5035687;28;8825;-68
2023/06/11 06:00:37;;;;;;;;;17.25;17.25;;;;;22.59;54.13;101569.47;5051845;28;8840;-67
2023/06/11 06:03:04;;;;;;;;;15.50;15.50;;;;;22.62;53.98;101565.41;5051596;28;8872;-68
2023/06/11 06:05:32;;;;;;;;;18.75;17.50;;;;;22.60;53.59;101570.28;5051345;28;8826;-68
2023/06/11 06:07:59;;;;;;;;;15.50;14.75;;;;;22.60;53.55;101587.59;5051585;28;8821;-66
2023/06/11 06:10:26;;;;;;;;;18.50;18.50;;;;;22.56;53.43;101585.63;5035113;28;8848;-68
2023/06/11 06:12:53;;;;;;;;;18.75;17.50;;;;;22.54;53.42;101585.88;5051347;28;8853;-68
2023/06/11 06:15:19;;;;;;;;;20.00;19.25;;;;;22.52;53.39;101588.03;5051304;28;8837;-67
2023/06/11 06:17:46;;;;;;;;;17.00;17.00;;;;;22.52;53.64;101588.03;5034759;28;8860;-68
2023/06/11 06:20:20;;;;;;;;;18.75;18.75;;;;;22.51;53.36;101591.03;5051489;28;8821;-68
2023/06/11 06:22:47;;;;;;;;;19.50;18.50;;;;;22.51;53.59;101586.38;5051328;28;8858;-68
2023/06/11 06:25:15;;;;;;;;;17.75;17.00;;;;;22.55;53.72;101592.19;5052487;28;8826;-66
2023/06/11 06:27:43;;;;;;;;;19.50;18.00;;;;;22.55;53.25;101578.47;5050570;28;8810;-67
2023/06/11 06:30:11;;;;;;;;;18.75;17.75;;;;;22.56;53.32;101591.94;5051294;28;8841;-67
2023/06/11 06:32:38;;;;;;;;;18.25;16.75;;;;;22.58;53.67;101589.78;5034422;28;8846;-66
2023/06/11 06:35:07;;;;;;;;;16.75;16.75;;;;;22.60;53.48;101584.84;5050698;28;8838;-69
2023/06/11 06:37:35;;;;;;;;;16.00;14.75;;;;;22.65;53.39;101576.69;5051158;28;8822;-68
2023/06/11 06:40:03;;;;;;;;;18.25;17.50;;;;;22.66;53.61;101591.22;5050968;28;9580;-68
2023/06/11 06:42:30;;;;;;;;;17.25;15.75;;;;;22.69;53.38;101585.25;5050800;28;8857;-68
2023/06/11 06:45:01;;;;;;;;;19.75;19.75;;;;;22.71;53.26;101594.84;5050587;28;8868;-67
2023/06/11 06:47:27;;;;;;;;;17.25;17.25;;;;;22.76;53.26;101593.25;5050914;28;8814;-68
2023/06/11 06:49:54;;;;;;;;;18.50;18.50;;;;;22.78;53.09;101591.09;5050811;28;8845;-68
2023/06/11 06:52:21;;;;;;;;;18.75;17.50;;;;;22.78;53.17;101594.66;5050854;28;9634;-69
2023/06/11 06:54:49;;;;;;;;;14.25;14.00;;;;;22.82;53.08;101586.75;5033910;28;8881;-68
2023/06/11 06:57:16;;;;;;;;;19.25;17.50;;;;;22.86;52.69;101590.63;5050683;28;8848;-67
2023/06/11 06:59:43;;;;;;;;;20.25;16.75;;;;;22.87;52.79;101590.38;5034230;28;8853;-67
2023/06/11 07:02:10;;;;;;;;;17.00;17.00;;;;;22.89;52.79;101582.72;5050580;28;9681;-68
2023/06/11 07:04:38;;;;;;;;;13.50;13.50;;;;;22.91;52.98;101590.72;5050291;28;8857;-68
2023/06/11 07:07:05;;;;;;;;;22.50;22.00;;;;;22.94;52.48;101595.69;5051801;28;8842;-67
2023/06/11 07:09:32;;;;;;;;;19.50;18.25;;;;;22.96;52.54;101596.25;5051722;28;8865;-68
2023/06/11 07:11:58;;;;;;;;;19.50;18.75;;;;;23.01;52.71;101603.72;5033844;28;8838;-69
2023/06/11 07:14:26;;;;;;;;;23.00;20.25;;;;;23.01;52.40;101599.06;5049977;28;8919;-69
2023/06/11 07:16:52;;;;;;;;;20.50;20.50;;;;;23.02;52.51;101603.47;5050442;28;9274;-69
2023/06/11 07:19:19;;;;;;;;;20.00;19.00;;;;;23.05;52.47;101600.22;5050100;28;8826;-68
2023/06/11 07:21:46;;;;;;;;;23.25;22.00;;;;;23.10;51.94;101604.94;5050044;28;9638;-68
2023/06/11 07:24:13;;;;;;;;;21.50;21.00;;;;;23.14;52.21;101603.31;5049970;28;8960;-68
2023/06/11 07:26:40;;;;;;;;;23.75;21.00;;;;;23.18;52.30;101602.53;5049972;28;8954;-68
2023/06/11 07:29:06;;;;;;;;;20.50;19.25;;;;;23.25;52.33;101606.97;5050186;28;8825;-69
2023/06/11 07:31:36;;;;;;;;;23.25;20.25;;;;;23.28;52.14;101612.78;5050002;28;8838;-68
2023/06/11 07:34:04;;;;;;;;;24.00;23.00;;;;;23.36;52.05;101608.72;5049552;28;8883;-68
2023/06/11 07:36:31;;;;;;;;;21.25;20.50;;;;;23.41;52.15;101614.25;5049910;28;9668;-68
2023/06/11 07:38:57;;;;;;;;;21.75;20.50;;;;;23.50;52.36;101609.09;5049869;28;9576;-68
2023/06/11 07:41:24;;;;;;;;;24.50;22.75;;;;;23.52;52.25;101602.28;5049632;28;8826;-69
2023/06/11 07:43:51;;;;;;;;;18.75;17.50;;;;;23.53;52.39;101603.91;5033357;28;8826;-69
2023/06/11 07:46:18;;;;;;;;;17.00;15.75;;;;;23.55;52.39;101611.91;5049383;28;8857;-68
2023/06/11 07:48:45;;;;;;;;;19.00;18.00;;;;;23.57;52.47;101605.06;5050914;28;8826;-69
2023/06/11 07:51:12;;;;;;;;;17.00;16.75;;;;;23.64;52.37;101610.34;5049612;28;8850;-67
2023/06/11 07:53:38;;;;;;;;;17.75;17.75;;;;;23.68;52.25;101612.31;5049365;28;8857;-69
2023/06/11 07:56:06;;;;;;;;;18.00;18.00;;;;;23.71;52.08;101618.41;5049418;28;8883;-68
2023/06/11 07:58:33;;;;;;;;;23.75;22.50;;;;;23.71;51.76;101615.66;5050858;28;8830;-68
2023/06/11 08:01:00;;;;;;;;;23.00;22.25;;;;;23.75;51.91;101612.09;5050903;28;8861;-68
2023/06/11 08:03:26;;;;;;;;;24.75;22.75;;;;;23.81;51.69;101610.22;5049338;28;8845;-68
2023/06/11 08:05:53;;;;;;;;;24.25;21.50;;;;;23.87;51.78;101603.69;5050498;28;8942;-69
2023/06/11 08:08:21;;;;;;;;;22.25;21.00;;;;;23.93;51.67;101608.91;5049109;28;8838;-69
2023/06/11 08:10:50;;;;;;;;;16.00;16.00;;;;;23.97;51.94;101603.72;5050658;28;8822;-69
2023/06/11 08:13:17;;;;;;;;;24.00;23.50;;;;;23.93;51.80;101600.66;5050397;28;8911;-68
2023/06/11 08:15:44;;;;;;;;;18.25;17.25;;;;;23.95;51.77;101607.84;5050215;28;8853;-69
2023/06/11 08:18:10;;;;;;;;;19.75;19.75;;;;;23.92;51.95;101604.53;5050445;28;8833;-68
2023/06/11 08:20:37;;;;;;;;;23.25;21.75;;;;;24.06;51.95;101604.88;5050342;28;8833;-68
2023/06/11 08:23:04;;;;;;;;;22.75;22.75;;;;;24.12;51.87;101595.56;5050107;28;9569;-69
2023/06/11 08:25:31;;;;;;;;;24.75;24.75;;;;;24.26;51.46;101595.09;5048877;28;8826;-68
2023/06/11 08:27:58;;;;;;;;;23.25;22.00;;;;;24.34;51.16;101602.81;5050347;28;8826;-69
2023/06/11 08:30:24;;;;;;;;;20.75;20.75;;;;;24.35;51.18;101597.06;5050109;28;8822;-68
2023/06/11 08:32:51;;;;;;;;;24.75;23.00;;;;;24.48;50.94;101603.22;5048964;28;8858;-67
2023/06/11 08:35:20;;;;;;;;;23.50;22.25;;;;;24.53;51.39;101600.47;5049742;28;8849;-66
2023/06/11 08:37:46;;;;;;;;;23.75;22.75;;;;;24.59;51.10;101591.13;5048910;28;8829;-67
2023/06/11 08:40:14;;;;;;;;;21.50;19.75;;;;;24.61;51.50;101597.19;5048867;28;8849;-66
2023/06/11 08:42:40;;;;;;;;;20.50;19.75;;;;;24.62;51.80;101593.34;5048882;28;8903;-67
2023/06/11 08:45:07;;;;;;;;;22.50;21.50;;;;;24.69;51.66;101590.34;5049668;28;8849;-67
2023/06/11 08:47:39;;;;;;;;;25.25;25.25;;;;;24.77;51.38;101592.56;5048679;28;8836;-67
2023/06/11 08:50:06;;;;;;;;;20.50;20.50;;;;;24.79;51.49;101593.94;5049612;28;8854;-67
2023/06/11 08:52:37;;;;;;;;;20.75;20.75;;;;;24.83;51.25;101585.97;5049838;28;8853;-66
2023/06/11 08:55:03;;;;;;;;;28.25;25.25;;;;;24.86;50.58;101586.25;5049441;28;8834;-67
2023/06/11 08:57:30;;;;;;;;;24.00;23.00;;;;;24.89;50.63;101588.47;5049866;28;8825;-67
2023/06/11 08:59:57;;;;;;;;;26.75;22.50;;;;;24.98;50.50;101582.41;5048665;28;8818;-68
2023/06/11 09:02:25;;;;;;;;;27.50;25.25;;;;;25.07;49.78;101586.28;5048393;28;8840;-68
2023/06/11 09:04:52;;;;;;;;;27.50;26.00;;;;;25.07;50.16;101581.59;5049450;28;8810;-67
2023/06/11 09:07:25;;;;;;;;;19.75;19.75;;;;;25.09;50.41;101584.13;5049999;28;9625;-67
2023/06/11 09:10:08;;;;;;;;;24.50;24.50;;;;;25.12;49.40;101586.34;5049943;28;8841;-68
2023/06/11 09:12:36;;;;;;;;;30.25;26.25;;;;;25.22;49.59;101585.53;5049799;28;9703;-67
2023/06/11 09:15:05;;;;;;;;;28.50;27.50;;;;;25.20;49.30;101582.19;5048073;28;8878;-67
2023/06/11 09:17:40;;;;;;;;;26.75;26.25;;;;;25.26;49.32;101584.69;5049709;28;8830;-67
2023/06/11 09:20:10;;;;;;;;;25.00;23.50;;;;;25.33;49.28;101587.19;5048476;28;8838;-67
2023/06/11 09:22:38;;;;;;;;;29.25;25.50;;;;;25.29;49.24;101583.31;5049625;28;8927;-67
2023/06/11 09:25:08;;;;;;;;;24.75;24.75;;;;;25.30;49.46;101585.78;5048179;28;8911;-67
2023/06/11 09:27:36;;;;;;;;;27.25;24.75;;;;;25.16;49.23;101579.19;5049642;28;8888;-67
2023/06/11 09:30:07;;;;;;;;;28.25;27.50;;;;;25.17;49.90;101580.84;5031885;28;8881;-66
2023/06/11 09:32:41;;;;;;;;;26.25;23.75;;;;;25.21;49.75;101586.63;5049552;28;8841;-66
2023/06/11 09:35:09;;;;;;;;;24.75;23.25;;;;;25.28;49.14;101589.91;5049374;28;8830;-67
2023/06/11 09:37:41;;;;;;;;;27.00;26.50;;;;;25.28;48.98;101584.41;5031831;28;8973;-68
2023/06/11 09:40:19;;;;;;;;;23.00;22.50;;;;;25.39;48.98;101581.38;5048362;28;8848;-66
2023/06/11 09:42:47;;;;;;;;;24.00;23.50;;;;;25.54;49.33;101583.31;5049528;28;8841;-67
2023/06/11 09:45:21;;;;;;;;;24.00;23.75;;;;;25.52;49.82;101576.41;5049240;28;8857;-67
2023/06/11 09:47:48;;;;;;;;;24.75;24.25;;;;;25.60;49.65;101573.09;5049602;28;8818;-67
2023/06/11 09:50:17;;;;;;;;;24.25;23.00;;;;;25.67;48.77;101575.59;5049424;28;8834;-66
2023/06/11 09:52:45;;;;;;;;;27.00;27.00;;;;;25.72;48.50;101581.06;5049335;28;8964;-67
2023/06/11 09:55:12;;;;;;;;;27.75;27.25;;;;;25.73;48.83;101582.75;5049299;28;8848;-67
2023/06/11 09:57:41;;;;;;;;;27.50;26.50;;;;;25.75;48.93;101581.34;5049308;28;8810;-67
2023/06/11 10:00:11;;;;;;;;;25.25;25.25;;;;;25.70;49.12;101586.06;5049402;28;8849;-66
2023/06/11 10:02:40;;;;;;;;;24.75;24.00;;;;;25.63;49.24;101581.66;5049789;28;8886;-67
2023/06/11 10:05:08;;;;;;;;;27.25;26.25;;;;;25.65;49.50;101584.97;5051331;28;8858;-68
2023/06/11 10:07:44;;;;;;;;;27.25;26.50;;;;;25.71;48.96;101587.72;5051626;28;8837;-67
2023/06/11 10:10:12;;;;;;;;;27.75;27.75;;;;;25.71;49.08;101584.94;5052987;28;8848;-69
2023/06/11 10:12:39;;;;;;;;;26.25;24.25;;;;;25.69;49.32;101587.19;5053061;28;8840;-67
2023/06/11 10:15:10;;;;;;;;;24.50;24.50;;;;;25.74;48.87;101592.69;5051046;28;8853;-67
2023/06/11 10:17:43;;;;;;;;;23.25;22.75;;;;;25.76;49.62;101591.28;5052625;28;8876;-67
2023/06/11 10:20:24;;;;;;;;;25.25;25.25;;;;;25.69;49.07;101593.50;5052728;28;9645;-67
2023/06/11 10:23:01;;;;;;;;;26.75;25.75;;;;;25.61;48.82;101588.56;5052508;28;8834;-67
2023/06/11 10:25:37;;;;;;;;;28.50;27.00;;;;;25.73;48.20;101591.03;5052167;28;8960;-67
2023/06/11 10:28:05;;;;;;;;;26.50;24.00;;;;;25.79;48.48;101593.50;5052422;28;8813;-67
2023/06/11 10:30:32;;;;;;;;;22.75;22.25;;;;;25.76;48.96;101584.94;5052388;28;8834;-66
2023/06/11 10:32:59;;;;;;;;;25.25;24.00;;;;;25.73;48.68;101588.28;5052548;28;9655;-67
2023/06/11 10:35:32;;;;;;;;;24.00;24.00;;;;;25.89;48.95;101585.25;5050753;28;8841;-67
2023/06/11 10:38:12;;;;;;;;;22.25;21.25;;;;;26.00;48.60;101591.53;5052396;28;8837;-66
2023/06/11 10:40:40;;;;;;;;;26.25;25.00;;;;;26.08;48.17;101588.19;5050993;28;8829;-67
2023/06/11 10:43:15;;;;;;;;;25.25;24.75;;;;;26.07;47.29;101585.75;5052018;28;8822;-67
2023/06/11 10:45:42;;;;;;;;;30.50;27.50;;;;;26.04;47.92;101580.78;5050595;28;8938;-68
2023/06/11 10:48:13;;;;;;;;;27.75;27.75;;;;;26.05;48.22;101587.94;5050854;28;9654;-67
2023/06/11 10:50:39;;;;;;;;;30.25;30.25;;;;;25.98;48.55;101590.19;5052156;28;8972;-68
2023/06/11 10:53:14;;;;;;;;;24.75;24.75;;;;;26.05;48.27;101587.94;5050835;28;8837;-67
2023/06/11 10:55:42;;;;;;;;;24.00;23.50;;;;;26.12;48.41;101586.53;5051792;28;8834;-67
2023/06/11 10:58:17;;;;;;;;;27.25;24.75;;;;;26.17;47.85;101584.88;5051988;28;8891;-67
2023/06/11 11:00:45;;;;;;;;;33.50;32.00;;;;;26.17;47.41;101582.97;5052009;28;8914;-68
2023/06/11 11:03:12;;;;;;;;;33.75;32.25;;;;;26.20;47.23;101576.84;5052353;28;8822;-67
2023/06/11 11:05:41;;;;;;;;;27.25;26.25;;;;;26.16;47.58;101584.03;5051478;28;8829;-67
2023/06/11 11:08:07;;;;;;;;;26.75;26.25;;;;;26.18;47.70;101570.81;5051804;28;8836;-67
2023/06/11 11:10:34;;;;;;;;;26.00;26.00;;;;;26.19;48.05;101574.38;5051947;28;8841;-67
2023/06/11 11:13:03;;;;;;;;;30.50;28.50;;;;;26.25;47.83;101576.88;5051635;28;8842;-67
2023/06/11 11:15:30;;;;;;;;;25.25;23.75;;;;;26.27;47.85;101573.81;5049898;28;8845;-67
2023/06/11 11:17:57;;;;;;;;;26.00;26.00;;;;;26.31;47.54;101567.44;5051548;28;8837;-67
2023/06/11 11:20:23;;;;;;;;;27.25;27.25;;;;;26.31;47.96;101566.63;5050434;28;8868;-65
2023/06/11 11:22:54;;;;;;;;;29.50;27.75;;;;;26.35;47.79;101570.47;5033719;28;8837;-67
2023/06/11 11:25:22;;;;;;;;;25.25;24.50;;;;;26.29;47.72;101566.06;5050094;28;8858;-68
2023/06/11 11:27:48;;;;;;;;;27.25;26.75;;;;;26.36;47.65;101566.59;5051535;28;8895;-68